logo dgac
Miércoles 28 de Febrero del 2024
Buscar por aerodromo o helipuerto
Ingrese nombre de aeródromo, localidad o designador OACI:
TAF: TAF SCEL 272200Z 2800/2824 21012KT CAVOK TX32/2819Z TN13/2810Z BECMG 2802/2804 16005KT BECMG 2808/2810 VRB02KT BECMG 2811/2813 18005KT BECMG 2816/2818 21012KT
TAF del 27/02/2024 a las 22:00 UTC
Para mayor información visite www.meteochile.gob.cl
Período de validez: desde el 28 a las 00:00 UTC hasta el 28 a las 24:00 UTC
Viento: dirección 210 grados, velocidad 12 nudos
Visibilidad: 10 km o más,
    sin nubes bajo los 5.000 pies o bajo del MSA (Mínimo de Seguridad del Aeródromo),
    sin cumulonimbus, y sin fenómenos de tiempo significativo en el aeródromo o alrededores
Temperatura máxima: 32ºC el 28 a las 19:00 UTC
Temperatura mínima: 13ºC el 28 a las 10:00 UTC
Se espera un cambio entre las 02:00 UTC del 28 y las 04:00 UTC del 28, :
Viento: dirección 160 grados, velocidad 5 nudos
Se espera un cambio entre las 08:00 UTC del 28 y las 10:00 UTC del 28, :
Viento: dirección variable, velocidad 2 nudos
Se espera un cambio entre las 11:00 UTC del 28 y las 13:00 UTC del 28, :
Viento: dirección 180 grados, velocidad 5 nudos
Se espera un cambio entre las 16:00 UTC del 28 y las 18:00 UTC del 28, :
Viento: dirección 210 grados, velocidad 12 nudos